N51CP KFSD-KOFK
Flight info
| Callsign | N51CP |
|---|---|
| Flight time | 0h 27m |
| Altitude | 16000 |
| Route | AZATY |
| Aircraft | TBM9/L-SDFGRWY/S |
Departure
| Time | 2026-05-09 10:33 |
|---|---|
| Airport | Sioux Falls Regional Airport (KFSD) |
Arrival
| Time | 2026-05-09 11:00 |
|---|---|
| Airport | Karl Stefan Memorial Airport (KOFK) |
| Time | Latitude | Longitude | Altitude | Speed | Heading |
|---|---|---|---|---|---|
| 2026-05-09 10:26 | 43.59114 | -96.74162 | 1425 ft | 0 kts | 246° |
| 2026-05-09 10:28 | 43.59131 | -96.74208 | 1425 ft | 10 kts | 294° |
| 2026-05-09 10:29 | 43.59125 | -96.74298 | 1425 ft | 11 kts | 208° |
| 2026-05-09 10:29 | 43.59048 | -96.74269 | 1425 ft | 14 kts | 155° |
| 2026-05-09 10:29 | 43.58956 | -96.74212 | 1425 ft | 15 kts | 155° |
| 2026-05-09 10:29 | 43.58854 | -96.74146 | 1425 ft | 17 kts | 155° |
| 2026-05-09 10:30 | 43.58743 | -96.74076 | 1425 ft | 18 kts | 155° |
| 2026-05-09 10:30 | 43.58624 | -96.73999 | 1426 ft | 20 kts | 155° |
| 2026-05-09 10:30 | 43.58488 | -96.73912 | 1425 ft | 22 kts | 155° |
| 2026-05-09 10:30 | 43.58344 | -96.73819 | 1425 ft | 23 kts | 155° |
| 2026-05-09 10:31 | 43.58191 | -96.73722 | 1425 ft | 25 kts | 155° |
| 2026-05-09 10:31 | 43.58034 | -96.73621 | 1425 ft | 26 kts | 155° |
| 2026-05-09 10:31 | 43.57867 | -96.73514 | 1424 ft | 27 kts | 155° |
| 2026-05-09 10:31 | 43.57693 | -96.73403 | 1424 ft | 28 kts | 155° |
| 2026-05-09 10:32 | 43.57517 | -96.73285 | 1424 ft | 24 kts | 153° |
| 2026-05-09 10:32 | 43.57397 | -96.73251 | 1425 ft | 18 kts | 200° |
| 2026-05-09 10:32 | 43.57380 | -96.73373 | 1425 ft | 17 kts | 334° |
| 2026-05-09 10:32 | 43.57583 | -96.73503 | 1423 ft | 56 kts | 335° |
| 2026-05-09 10:33 | 43.58069 | -96.73841 | 1489 ft | 94 kts | 328° |
| 2026-05-09 10:33 | 43.58668 | -96.74302 | 1814 ft | 102 kts | 331° |
| 2026-05-09 10:33 | 43.59319 | -96.74713 | 2165 ft | 108 kts | 332° |
| 2026-05-09 10:33 | 43.60058 | -96.75168 | 2377 ft | 126 kts | 332° |
| 2026-05-09 10:34 | 43.60706 | -96.76011 | 2622 ft | 138 kts | 288° |
| 2026-05-09 10:34 | 43.59594 | -96.78278 | 3148 ft | 182 kts | 203° |
| 2026-05-09 10:34 | 43.58348 | -96.78656 | 3603 ft | 186 kts | 197° |
| 2026-05-09 10:35 | 43.57046 | -96.78981 | 3960 ft | 192 kts | 198° |
| 2026-05-09 10:35 | 43.55722 | -96.79290 | 4406 ft | 192 kts | 198° |
| 2026-05-09 10:35 | 43.54402 | -96.79571 | 4811 ft | 195 kts | 197° |
| 2026-05-09 10:35 | 43.53046 | -96.79847 | 5211 ft | 197 kts | 197° |
| 2026-05-09 10:36 | 43.51678 | -96.80118 | 5613 ft | 199 kts | 197° |
| 2026-05-09 10:36 | 43.50316 | -96.80374 | 6008 ft | 201 kts | 197° |
| 2026-05-09 10:36 | 43.48921 | -96.80625 | 6389 ft | 203 kts | 197° |
| 2026-05-09 10:36 | 43.47516 | -96.80875 | 6785 ft | 203 kts | 197° |
| 2026-05-09 10:37 | 43.46093 | -96.81121 | 7155 ft | 205 kts | 197° |
| 2026-05-09 10:37 | 43.44680 | -96.81369 | 7555 ft | 207 kts | 197° |
| 2026-05-09 10:37 | 43.43248 | -96.81621 | 7937 ft | 209 kts | 197° |
| 2026-05-09 10:37 | 43.41812 | -96.81950 | 8286 ft | 206 kts | 206° |
| 2026-05-09 10:38 | 43.40456 | -96.82602 | 8656 ft | 207 kts | 208° |
| 2026-05-09 10:38 | 43.39091 | -96.83202 | 9040 ft | 209 kts | 206° |
| 2026-05-09 10:38 | 43.37689 | -96.83795 | 9421 ft | 211 kts | 206° |
| 2026-05-09 10:38 | 43.36280 | -96.84398 | 9776 ft | 212 kts | 207° |
| 2026-05-09 10:39 | 43.34885 | -96.84999 | 10139 ft | 213 kts | 207° |
| 2026-05-09 10:39 | 43.33466 | -96.85609 | 10491 ft | 214 kts | 208° |
| 2026-05-09 10:39 | 43.32037 | -96.86222 | 10838 ft | 216 kts | 208° |
| 2026-05-09 10:39 | 43.30599 | -96.86838 | 11188 ft | 217 kts | 209° |
| 2026-05-09 10:40 | 43.29148 | -96.87460 | 11536 ft | 218 kts | 209° |
| 2026-05-09 10:40 | 43.27710 | -96.88076 | 11887 ft | 219 kts | 210° |
| 2026-05-09 10:40 | 43.26245 | -96.88704 | 12244 ft | 221 kts | 210° |
| 2026-05-09 10:40 | 43.24769 | -96.89337 | 12607 ft | 222 kts | 211° |
| 2026-05-09 10:41 | 43.23288 | -96.89970 | 12956 ft | 223 kts | 211° |
| 2026-05-09 10:41 | 43.21796 | -96.90608 | 13285 ft | 225 kts | 211° |
| 2026-05-09 10:41 | 43.20320 | -96.91239 | 13636 ft | 225 kts | 211° |
| 2026-05-09 10:41 | 43.18813 | -96.91882 | 13943 ft | 227 kts | 211° |
| 2026-05-09 10:42 | 43.17296 | -96.92530 | 14254 ft | 228 kts | 211° |
| 2026-05-09 10:42 | 43.15793 | -96.93172 | 14566 ft | 230 kts | 210° |
| 2026-05-09 10:42 | 43.14260 | -96.93825 | 14911 ft | 231 kts | 210° |
| 2026-05-09 10:42 | 43.12718 | -96.94483 | 15242 ft | 233 kts | 210° |
| 2026-05-09 10:43 | 43.11160 | -96.95147 | 15584 ft | 234 kts | 210° |
| 2026-05-09 10:43 | 43.09599 | -96.95812 | 15909 ft | 236 kts | 210° |
| 2026-05-09 10:43 | 43.07987 | -96.96510 | 15964 ft | 250 kts | 210° |
| 2026-05-09 10:43 | 43.06302 | -96.97238 | 15972 ft | 262 kts | 208° |
| 2026-05-09 10:44 | 43.04519 | -96.97993 | 15976 ft | 272 kts | 208° |
| 2026-05-09 10:44 | 43.02706 | -96.98758 | 15978 ft | 279 kts | 208° |
| 2026-05-09 10:44 | 43.00822 | -96.99559 | 15971 ft | 284 kts | 207° |
| 2026-05-09 10:44 | 42.98920 | -97.00364 | 15976 ft | 288 kts | 207° |
| 2026-05-09 10:45 | 42.97014 | -97.01173 | 15983 ft | 291 kts | 207° |
| 2026-05-09 10:46 | 42.89196 | -97.04480 | 15985 ft | 296 kts | 207° |
| 2026-05-09 10:46 | 42.87223 | -97.05314 | 15987 ft | 297 kts | 207° |
| 2026-05-09 10:46 | 42.85249 | -97.06148 | 15986 ft | 297 kts | 207° |
| 2026-05-09 10:46 | 42.83266 | -97.06983 | 15985 ft | 298 kts | 207° |
| 2026-05-09 10:47 | 42.81279 | -97.07822 | 15983 ft | 298 kts | 207° |
| 2026-05-09 10:47 | 42.79315 | -97.08649 | 15974 ft | 298 kts | 206° |
| 2026-05-09 10:47 | 42.77315 | -97.09495 | 15792 ft | 304 kts | 206° |
| 2026-05-09 10:47 | 42.75255 | -97.10382 | 15412 ft | 314 kts | 206° |
| 2026-05-09 10:48 | 42.73136 | -97.11284 | 14995 ft | 322 kts | 206° |
| 2026-05-09 10:48 | 42.70994 | -97.12171 | 14568 ft | 327 kts | 205° |
| 2026-05-09 10:48 | 42.68799 | -97.13079 | 14134 ft | 330 kts | 206° |
| 2026-05-09 10:48 | 42.66599 | -97.14005 | 13696 ft | 331 kts | 206° |
| 2026-05-09 10:49 | 42.64390 | -97.14935 | 13230 ft | 331 kts | 205° |
| 2026-05-09 10:49 | 42.62217 | -97.15844 | 12793 ft | 329 kts | 205° |
| 2026-05-09 10:49 | 42.60134 | -97.16698 | 12374 ft | 291 kts | 205° |
| 2026-05-09 10:49 | 42.58306 | -97.17424 | 12014 ft | 267 kts | 206° |
| 2026-05-09 10:50 | 42.56533 | -97.18180 | 11660 ft | 265 kts | 207° |
| 2026-05-09 10:50 | 42.54776 | -97.18944 | 11312 ft | 264 kts | 207° |
| 2026-05-09 10:50 | 42.53019 | -97.19683 | 10957 ft | 263 kts | 206° |
| 2026-05-09 10:50 | 42.51288 | -97.20401 | 10618 ft | 262 kts | 206° |
| 2026-05-09 10:51 | 42.49547 | -97.21126 | 10277 ft | 261 kts | 206° |
| 2026-05-09 10:51 | 42.47832 | -97.21845 | 9934 ft | 260 kts | 205° |
| 2026-05-09 10:51 | 42.46094 | -97.22570 | 9581 ft | 260 kts | 205° |
| 2026-05-09 10:51 | 42.44371 | -97.23285 | 9223 ft | 258 kts | 205° |
| 2026-05-09 10:52 | 42.42656 | -97.23999 | 8883 ft | 256 kts | 205° |
| 2026-05-09 10:52 | 42.40973 | -97.24700 | 8548 ft | 255 kts | 205° |
| 2026-05-09 10:52 | 42.39279 | -97.25404 | 8210 ft | 253 kts | 205° |
| 2026-05-09 10:52 | 42.37599 | -97.26102 | 7877 ft | 251 kts | 205° |
| 2026-05-09 10:53 | 42.35928 | -97.26797 | 7548 ft | 250 kts | 205° |
| 2026-05-09 10:53 | 42.34284 | -97.27480 | 7220 ft | 248 kts | 205° |
| 2026-05-09 10:53 | 42.32621 | -97.28169 | 6890 ft | 247 kts | 205° |
| 2026-05-09 10:53 | 42.30994 | -97.28845 | 6568 ft | 246 kts | 205° |
| 2026-05-09 10:54 | 42.29352 | -97.29524 | 6243 ft | 246 kts | 204° |
| 2026-05-09 10:54 | 42.27720 | -97.30201 | 5906 ft | 244 kts | 204° |
| 2026-05-09 10:54 | 42.26101 | -97.30874 | 5580 ft | 241 kts | 204° |
| 2026-05-09 10:54 | 42.24518 | -97.31528 | 5264 ft | 239 kts | 204° |
| 2026-05-09 10:55 | 42.22932 | -97.32180 | 4946 ft | 237 kts | 204° |
| 2026-05-09 10:55 | 42.21361 | -97.32829 | 4632 ft | 234 kts | 205° |
| 2026-05-09 10:55 | 42.19809 | -97.33476 | 4317 ft | 232 kts | 204° |
| 2026-05-09 10:55 | 42.18277 | -97.34106 | 4010 ft | 229 kts | 204° |
| 2026-05-09 10:56 | 42.16791 | -97.34762 | 3891 ft | 217 kts | 205° |
| 2026-05-09 10:56 | 42.15418 | -97.35414 | 3885 ft | 207 kts | 205° |
| 2026-05-09 10:56 | 42.14081 | -97.36040 | 3887 ft | 200 kts | 205° |
| 2026-05-09 10:56 | 42.12769 | -97.36664 | 3891 ft | 199 kts | 205° |
| 2026-05-09 10:57 | 42.11462 | -97.37286 | 3888 ft | 198 kts | 206° |
| 2026-05-09 10:57 | 42.10168 | -97.37901 | 3768 ft | 199 kts | 205° |
| 2026-05-09 10:57 | 42.08947 | -97.38473 | 3556 ft | 176 kts | 205° |
| 2026-05-09 10:57 | 42.07828 | -97.38999 | 3331 ft | 165 kts | 205° |
| 2026-05-09 10:58 | 42.06764 | -97.39504 | 3117 ft | 158 kts | 205° |
| 2026-05-09 10:58 | 42.05774 | -97.39971 | 2929 ft | 139 kts | 204° |
| 2026-05-09 10:58 | 42.04930 | -97.40362 | 2753 ft | 121 kts | 205° |
| 2026-05-09 10:58 | 42.04159 | -97.40728 | 2565 ft | 115 kts | 204° |
| 2026-05-09 10:59 | 42.03407 | -97.41083 | 2458 ft | 113 kts | 202° |
| 2026-05-09 10:59 | 42.02674 | -97.41434 | 2359 ft | 114 kts | 201° |
| 2026-05-09 10:59 | 42.01909 | -97.41802 | 2199 ft | 119 kts | 201° |
| 2026-05-09 10:59 | 42.01109 | -97.42177 | 1983 ft | 117 kts | 200° |
| 2026-05-09 11:00 | 42.00378 | -97.42517 | 1792 ft | 109 kts | 199° |
| 2026-05-09 11:00 | 41.99688 | -97.42845 | 1640 ft | 102 kts | 200° |
| 2026-05-09 11:00 | 41.99036 | -97.43147 | 1543 ft | 93 kts | 199° |
| 2026-05-09 11:00 | 41.98639 | -97.43336 | 1545 ft | 11 kts | 199° |
| 2026-05-09 11:01 | 41.98572 | -97.43307 | 1547 ft | 12 kts | 136° |
| 2026-05-09 11:01 | 41.98509 | -97.43229 | 1548 ft | 13 kts | 138° |
| 2026-05-09 11:01 | 41.98459 | -97.43141 | 1550 ft | 11 kts | 45° |
| 2026-05-09 11:01 | 41.98493 | -97.43073 | 1549 ft | 9 kts | 25° |
| 2026-05-09 11:02 | 41.98504 | -97.43067 | 1544 ft | 0 kts | 18° |